Terminal Aerodrome Forecast
Issued by NWS

Home | Current Version | Previous Version | Graphics & Text | Print | Product List | Glossary On
Versions: 1 2 3 4 5 6 7 8 9 10 11 12 13 14 15 16 17 18
000
FTUS43 KBIS 182322
TAFMOT
TAF
KMOT 182322Z 1900/1924 35006KT P6SM FEW110 FEW200
     FM190300 05005KT P6SM FEW100 FEW200
     FM190700 11005KT P6SM FEW100 FEW250
     FM191500 17008KT P6SM VCTS BKN090CB BKN200
     FM192100 21007KT P6SM FEW250=

USA.gov is the U.S. government's official web portal to all federal, state and local government web resources and services.